Adriatic Sea — WDB5553 — position and weather

sailwx.info

Track history (hours):
 
Tides and Currents Weather Stations Pressure Air Temp Water Temp Dewpoint Dewpoint Depression Visibility Wind Speed Wind Dir Waves Ship Positions

Adriatic Sea

Owner: Kirby Offshore Marine, LLC, Seattle, WA. More information available from US FCC via Universal Licensing System and Coast Guard Vessel Documentation Center.

Last reported at 2017-Mar-01 22:30 UTC. Time now 2017-Mar-29 05:28 UTC.
Position N 26°10' W 079°25'.
Warning: this ship's position is 27 days out of date.

Length 139 m; draft 4.4 m.

Type: . MMSI: 366910890.

Date/timePositionNaut miles runAvg speedWind from/ knotsBaromVisibWave heightAir tempDewpointWater temp
2017-Mar-01 22:30N 26°10' W 079°25'9 9.0
2017-Mar-01 21:32N 26°02' W 079°31'9 9.2
2017-Mar-01 20:33N 25°55' W 079°37'9 9.2
2017-Mar-01 19:33N 25°47' W 079°42'9 9.0
2017-Mar-01 18:33N 25°40' W 079°48'9 9.0
2017-Mar-01 17:33N 25°33' W 079°54'  
2017-Feb-24 11:20N 28°23' W 093°10'11 6.0
2017-Feb-24 09:32N 28°29' W 093°20'6 6.2
2017-Feb-24 08:33N 28°33' W 093°26'8 6.3
2017-Feb-24 07:20N 28°37' W 093°33'5 6.4
2017-Feb-24 06:33N 28°40' W 093°38'26 6.6
2017-Feb-24 02:33N 28°55' W 094°02'13 6.7
2017-Feb-24 00:33N 29°03' W 094°14'8 6.7
2017-Feb-23 23:17N 29°08' W 094°23'24 1.3
2017-Feb-23 04:26N 29°21' W 094°46'0 0.0
2017-Feb-23 03:14N 29°21' W 094°46'0 0.0
2017-Feb-21 22:23N 29°21' W 094°46'  
Track history (hours):
 
Tides and Currents Weather Stations Pressure Air Temp Water Temp Dewpoint Dewpoint Depression Visibility Wind Speed Wind Dir Waves Ship Positions

Adriatic Sea

Owner: Kirby Offshore Marine, LLC, Seattle, WA. More information available from US FCC via Universal Licensing System and Coast Guard Vessel Documentation Center.

Last reported at 2017-Mar-01 22:30 UTC. Time now 2017-Mar-29 05:28 UTC.
Position N 26°10' W 079°25'.
Warning: this ship's position is 27 days out of date.

Length 139 m; draft 4.4 m.

Type: . MMSI: 366910890.

Date/timePositionNaut miles runAvg speedWind from/ knotsBaromVisibWave heightAir tempDewpointWater temp
2017-Mar-01 22:30N 26°10' W 079°25'9 9.0
2017-Mar-01 21:32N 26°02' W 079°31'9 9.2
2017-Mar-01 20:33N 25°55' W 079°37'9 9.2
2017-Mar-01 19:33N 25°47' W 079°42'9 9.0
2017-Mar-01 18:33N 25°40' W 079°48'9 9.0
2017-Mar-01 17:33N 25°33' W 079°54'  
2017-Feb-24 11:20N 28°23' W 093°10'11 6.0
2017-Feb-24 09:32N 28°29' W 093°20'6 6.2
2017-Feb-24 08:33N 28°33' W 093°26'8 6.3
2017-Feb-24 07:20N 28°37' W 093°33'5 6.4
2017-Feb-24 06:33N 28°40' W 093°38'26 6.6
2017-Feb-24 02:33N 28°55' W 094°02'13 6.7
2017-Feb-24 00:33N 29°03' W 094°14'8 6.7
2017-Feb-23 23:17N 29°08' W 094°23'24 1.3
2017-Feb-23 04:26N 29°21' W 094°46'0 0.0
2017-Feb-23 03:14N 29°21' W 094°46'0 0.0
2017-Feb-21 22:23N 29°21' W 094°46'  

Dump ship's entire track history